sensor_id;sensor_type;location;lat;lon;timestamp;pressure;altitude;pressure_sealevel;temperature;humidity
56514;BME280;62152;52.078;8.414;2023-03-21T00:02:21;100208.09;;;18.52;52.66
56514;BME280;62152;52.078;8.414;2023-03-21T00:06:21;100210.84;;;18.52;52.71
56514;BME280;62152;52.078;8.414;2023-03-21T00:10:23;100210.06;;;18.51;52.46
56514;BME280;62152;52.078;8.414;2023-03-21T00:14:23;100205.72;;;18.50;52.81
56514;BME280;62152;52.078;8.414;2023-03-21T00:18:26;100205.72;;;18.50;52.96
56514;BME280;62152;52.078;8.414;2023-03-21T00:22:27;100193.16;;;18.49;52.42
56514;BME280;62152;52.078;8.414;2023-03-21T00:26:28;100198.66;;;18.49;52.78
56514;BME280;62152;52.078;8.414;2023-03-21T00:30:29;100196.69;;;18.50;52.84
56514;BME280;62152;52.078;8.414;2023-03-21T00:34:31;100195.13;;;18.49;52.94
56514;BME280;62152;52.078;8.414;2023-03-21T00:38:33;100188.84;;;18.48;52.32
56514;BME280;62152;52.078;8.414;2023-03-21T00:42:34;100186.88;;;18.49;52.93
56514;BME280;62152;52.078;8.414;2023-03-21T00:46:37;100181.75;;;18.47;52.93
56514;BME280;62152;52.078;8.414;2023-03-21T00:50:41;100183.34;;;18.48;52.63
56514;BME280;62152;52.078;8.414;2023-03-21T00:54:45;100176.28;;;18.47;52.79
56514;BME280;62152;52.078;8.414;2023-03-21T00:58:46;100175.47;;;18.47;52.76
56514;BME280;62152;52.078;8.414;2023-03-21T01:02:47;100164.50;;;18.47;52.53
56514;BME280;62152;52.078;8.414;2023-03-21T01:06:52;100158.22;;;18.46;53.16
56514;BME280;62152;52.078;8.414;2023-03-21T01:10:54;100156.59;;;18.45;52.88
56514;BME280;62152;52.078;8.414;2023-03-21T01:14:56;100156.25;;;18.47;52.95
56514;BME280;62152;52.078;8.414;2023-03-21T01:18:57;100158.22;;;18.46;52.36
56514;BME280;62152;52.078;8.414;2023-03-21T01:22:59;100151.91;;;18.46;52.90
56514;BME280;62152;52.078;8.414;2023-03-21T01:27:01;100154.66;;;18.46;52.82
56514;BME280;62152;52.078;8.414;2023-03-21T01:31:05;100151.09;;;18.45;52.38
56514;BME280;62152;52.078;8.414;2023-03-21T01:35:06;100146.41;;;18.46;52.42
56514;BME280;62152;52.078;8.414;2023-03-21T01:39:09;100146.78;;;18.44;52.72
56514;BME280;62152;52.078;8.414;2023-03-21T01:43:20;100144.03;;;18.44;52.78
56514;BME280;62152;52.078;8.414;2023-03-21T01:47:24;100143.25;;;18.44;53.03
56514;BME280;62152;52.078;8.414;2023-03-21T01:51:43;100139.34;;;18.45;52.99
56514;BME280;62152;52.078;8.414;2023-03-21T01:55:52;100139.34;;;18.45;52.54
56514;BME280;62152;52.078;8.414;2023-03-21T02:00:06;100132.25;;;18.44;52.50
56514;BME280;62152;52.078;8.414;2023-03-21T02:04:20;100131.47;;;18.43;53.05
56514;BME280;62152;52.078;8.414;2023-03-21T02:08:33;100131.47;;;18.43;52.84
56514;BME280;62152;52.078;8.414;2023-03-21T02:12:40;100125.97;;;18.43;52.88
56514;BME280;62152;52.078;8.414;2023-03-21T02:16:50;100121.66;;;18.42;52.90
56514;BME280;62152;52.078;8.414;2023-03-21T02:26:27;100112.63;;;18.42;52.84
56514;BME280;62152;52.078;8.414;2023-03-21T02:31:13;100101.63;;;18.42;52.54
56514;BME280;62152;52.078;8.414;2023-03-21T02:35:51;100104.38;;;18.42;52.30
56514;BME280;62152;52.078;8.414;2023-03-21T02:40:07;100098.09;;;18.41;52.30
56514;BME280;62152;52.078;8.414;2023-03-21T02:44:19;100091.81;;;18.41;52.61
56514;BME280;62152;52.078;8.414;2023-03-21T02:48:30;100102.81;;;18.41;52.79
56514;BME280;62152;52.078;8.414;2023-03-21T02:52:37;100090.25;;;18.40;52.59
56514;BME280;62152;52.078;8.414;2023-03-21T02:56:48;100082.78;;;18.40;53.10
56514;BME280;62152;52.078;8.414;2023-03-21T03:00:51;100086.34;;;18.41;52.56
56514;BME280;62152;52.078;8.414;2023-03-21T03:05:12;100088.28;;;18.40;52.76
56514;BME280;62152;52.078;8.414;2023-03-21T03:09:28;100086.34;;;18.41;52.78
56514;BME280;62152;52.078;8.414;2023-03-21T03:13:50;100087.50;;;18.40;52.39
56514;BME280;62152;52.078;8.414;2023-03-21T03:18:08;100091.03;;;18.40;52.94
56514;BME280;62152;52.078;8.414;2023-03-21T03:22:18;100087.50;;;18.40;52.60
56514;BME280;62152;52.078;8.414;2023-03-21T03:26:32;100082.34;;;18.38;52.81
56514;BME280;62152;52.078;8.414;2023-03-21T03:30:38;100080.41;;;18.39;52.66
56514;BME280;62152;52.078;8.414;2023-03-21T03:34:44;100082.34;;;18.38;52.83
56514;BME280;62152;52.078;8.414;2023-03-21T03:38:56;100077.66;;;18.39;52.88
56514;BME280;62152;52.078;8.414;2023-03-21T03:43:02;100078.81;;;18.38;52.52
56514;BME280;62152;52.078;8.414;2023-03-21T03:47:19;100084.31;;;18.38;52.92
56514;BME280;62152;52.078;8.414;2023-03-21T03:51:31;100078.81;;;18.38;52.79
56514;BME280;62152;52.078;8.414;2023-03-21T03:55:59;100061.56;;;18.37;52.97
56514;BME280;62152;52.078;8.414;2023-03-21T04:00:04;100057.63;;;18.38;52.77
56514;BME280;62152;52.078;8.414;2023-03-21T04:04:24;100051.34;;;18.38;52.79
56514;BME280;62152;52.078;8.414;2023-03-21T04:08:26;100056.06;;;18.37;52.38
56514;BME280;62152;52.078;8.414;2023-03-21T04:12:30;100051.34;;;18.38;52.53
56514;BME280;62152;52.078;8.414;2023-03-21T04:16:50;100049.00;;;18.36;52.66
56514;BME280;62152;52.078;8.414;2023-03-21T04:20:52;100056.84;;;18.38;52.47
56514;BME280;62152;52.078;8.414;2023-03-21T04:24:53;100056.44;;;18.36;52.37
56514;BME280;62152;52.078;8.414;2023-03-21T04:28:54;100042.72;;;18.36;52.82
56514;BME280;62152;52.078;8.414;2023-03-21T04:32:58;100052.13;;;18.35;52.91
56514;BME280;62152;52.078;8.414;2023-03-21T04:37:01;100046.63;;;18.35;52.25
56514;BME280;62152;52.078;8.414;2023-03-21T04:41:02;100050.16;;;18.35;52.39
56514;BME280;62152;52.078;8.414;2023-03-21T04:45:06;100038.38;;;18.35;52.96
56514;BME280;62152;52.078;8.414;2023-03-21T04:49:08;100035.63;;;18.35;52.80
56514;BME280;62152;52.078;8.414;2023-03-21T04:53:11;100029.34;;;18.34;52.88
56514;BME280;62152;52.078;8.414;2023-03-21T04:57:12;100035.63;;;18.35;52.35
56514;BME280;62152;52.078;8.414;2023-03-21T05:01:12;100021.13;;;18.34;52.44
56514;BME280;62152;52.078;8.414;2023-03-21T05:05:13;100020.66;;;18.28;51.41
56514;BME280;62152;52.078;8.414;2023-03-21T05:09:15;100032.91;;;18.08;50.78
56514;BME280;62152;52.078;8.414;2023-03-21T05:13:17;100020.97;;;17.97;49.47
56514;BME280;62152;52.078;8.414;2023-03-21T05:17:17;100032.94;;;18.12;50.94
56514;BME280;62152;52.078;8.414;2023-03-21T05:21:19;100018.53;;;18.18;50.68
56514;BME280;62152;52.078;8.414;2023-03-21T05:25:23;100016.63;;;18.22;50.94
56514;BME280;62152;52.078;8.414;2023-03-21T05:29:41;100025.28;;;18.24;50.40
56514;BME280;62152;52.078;8.414;2023-03-21T05:33:44;100031.22;;;18.26;50.42
56514;BME280;62152;52.078;8.414;2023-03-21T05:37:49;100020.25;;;18.26;50.41
56514;BME280;62152;52.078;8.414;2023-03-21T05:41:52;100024.56;;;18.27;50.73
56514;BME280;62152;52.078;8.414;2023-03-21T05:45:52;100021.81;;;18.27;50.61
56514;BME280;62152;52.078;8.414;2023-03-21T05:49:54;100028.47;;;18.26;51.03
56514;BME280;62152;52.078;8.414;2023-03-21T05:53:56;100027.31;;;18.27;51.00
56514;BME280;62152;52.078;8.414;2023-03-21T05:57:58;100024.56;;;18.27;51.13
56514;BME280;62152;52.078;8.414;2023-03-21T06:02:02;100022.97;;;18.26;50.71
56514;BME280;62152;52.078;8.414;2023-03-21T06:06:04;100015.16;;;18.28;51.39
56514;BME280;62152;52.078;8.414;2023-03-21T06:10:13;100021.81;;;18.27;51.27
56514;BME280;62152;52.078;8.414;2023-03-21T06:14:20;100015.16;;;18.28;51.03
56514;BME280;62152;52.078;8.414;2023-03-21T06:18:37;100009.66;;;18.28;51.50
56514;BME280;62152;52.078;8.414;2023-03-21T06:23:11;100015.16;;;18.28;51.38
56514;BME280;62152;52.078;8.414;2023-03-21T06:27:12;100020.66;;;18.28;51.15
56514;BME280;62152;52.078;8.414;2023-03-21T06:31:24;100021.44;;;18.29;51.20
56514;BME280;62152;52.078;8.414;2023-03-21T06:35:27;100023.41;;;18.28;51.29
56514;BME280;62152;52.078;8.414;2023-03-21T06:39:28;100022.22;;;18.29;51.21
56514;BME280;62152;52.078;8.414;2023-03-21T06:43:29;100027.72;;;18.29;51.47
56514;BME280;62152;52.078;8.414;2023-03-21T06:47:31;100023.00;;;18.30;51.44
56514;BME280;62152;52.078;8.414;2023-03-21T06:51:33;100027.72;;;18.29;51.16
56514;BME280;62152;52.078;8.414;2023-03-21T06:55:48;100023.81;;;18.30;51.14
56514;BME280;62152;52.078;8.414;2023-03-21T06:59:49;100029.28;;;18.30;51.24
56514;BME280;62152;52.078;8.414;2023-03-21T07:03:55;100027.72;;;18.29;51.63
56514;BME280;62152;52.078;8.414;2023-03-21T07:07:57;100021.06;;;18.30;51.27
56514;BME280;62152;52.078;8.414;2023-03-21T07:12:02;100023.81;;;18.30;51.62
56514;BME280;62152;52.078;8.414;2023-03-21T07:16:17;100023.81;;;18.30;51.45
56514;BME280;62152;52.078;8.414;2023-03-21T07:20:20;100025.38;;;18.31;51.37
56514;BME280;62152;52.078;8.414;2023-03-21T07:24:20;100027.34;;;18.31;51.79
56514;BME280;62152;52.078;8.414;2023-03-21T07:28:22;100021.84;;;18.31;51.78
56514;BME280;62152;52.078;8.414;2023-03-21T07:32:23;100024.59;;;18.31;51.52
56514;BME280;62152;52.078;8.414;2023-03-21T07:36:25;100017.16;;;18.31;51.73
56514;BME280;62152;52.078;8.414;2023-03-21T07:40:26;100026.16;;;18.32;52.19
56514;BME280;62152;52.078;8.414;2023-03-21T07:44:27;100025.38;;;18.31;51.33
56514;BME280;62152;52.078;8.414;2023-03-21T07:48:36;100026.16;;;18.32;51.83
56514;BME280;62152;52.078;8.414;2023-03-21T07:52:39;100019.88;;;18.31;51.70
56514;BME280;62152;52.078;8.414;2023-03-21T07:56:40;100033.63;;;18.31;51.91
56514;BME280;62152;52.078;8.414;2023-03-21T08:00:40;100042.66;;;18.32;52.00
56514;BME280;62152;52.078;8.414;2023-03-21T08:04:42;100035.56;;;18.31;51.52
56514;BME280;62152;52.078;8.414;2023-03-21T08:08:44;100039.91;;;18.32;52.00
56514;BME280;62152;52.078;8.414;2023-03-21T08:12:46;100043.47;;;18.33;51.69
56514;BME280;62152;52.078;8.414;2023-03-21T08:16:47;100040.72;;;18.33;51.61
56514;BME280;62152;52.078;8.414;2023-03-21T08:20:50;100036.81;;;18.34;51.78
56514;BME280;62152;52.078;8.414;2023-03-21T08:24:53;100035.63;;;18.35;51.93
56514;BME280;62152;52.078;8.414;2023-03-21T08:28:54;100027.41;;;18.35;52.11
56514;BME280;62152;52.078;8.414;2023-03-21T08:32:56;100026.25;;;18.36;52.13
56514;BME280;62152;52.078;8.414;2023-03-21T08:36:56;100030.94;;;18.35;51.40
56514;BME280;62152;52.078;8.414;2023-03-21T08:40:59;100025.44;;;18.35;51.72
56514;BME280;62152;52.078;8.414;2023-03-21T08:45:00;100031.72;;;18.36;52.06
56514;BME280;62152;52.078;8.414;2023-03-21T08:49:01;100034.47;;;18.36;51.73
56514;BME280;62152;52.078;8.414;2023-03-21T08:53:02;100034.84;;;18.34;51.57
56514;BME280;62152;52.078;8.414;2023-03-21T08:57:04;100038.38;;;18.35;52.10
56514;BME280;62152;52.078;8.414;2023-03-21T09:01:05;100038.38;;;18.35;51.75
56514;BME280;62152;52.078;8.414;2023-03-21T09:05:08;100030.16;;;18.35;52.22
56514;BME280;62152;52.078;8.414;2023-03-21T09:09:09;100029.34;;;18.34;52.09
56514;BME280;62152;52.078;8.414;2023-03-21T09:13:11;100030.16;;;18.35;51.64
56514;BME280;62152;52.078;8.414;2023-03-21T09:17:12;100032.91;;;18.35;52.02
56514;BME280;62152;52.078;8.414;2023-03-21T09:21:14;100028.19;;;18.35;51.86
56514;BME280;62152;52.078;8.414;2023-03-21T09:25:17;100028.59;;;18.37;51.84
56514;BME280;62152;52.078;8.414;2023-03-21T09:29:20;100031.34;;;18.37;52.02
56514;BME280;62152;52.078;8.414;2023-03-21T09:33:21;100030.19;;;18.38;51.56
56514;BME280;62152;52.078;8.414;2023-03-21T09:37:21;100030.97;;;18.39;51.36
56514;BME280;62152;52.078;8.414;2023-03-21T09:41:44;100029.03;;;18.39;52.03
56514;BME280;62152;52.078;8.414;2023-03-21T09:46:01;100024.34;;;18.40;51.56
56514;BME280;62152;52.078;8.414;2023-03-21T09:50:13;100019.19;;;18.38;52.06
56514;BME280;62152;52.078;8.414;2023-03-21T09:54:22;100024.69;;;18.38;51.84
56514;BME280;62152;52.078;8.414;2023-03-21T09:58:29;100025.84;;;18.37;51.72
56514;BME280;62152;52.078;8.414;2023-03-21T10:02:38;100022.31;;;18.37;51.79
56514;BME280;62152;52.078;8.414;2023-03-21T10:06:44;100030.19;;;18.38;51.94
56514;BME280;62152;52.078;8.414;2023-03-21T10:10:49;100016.44;;;18.38;52.07
56514;BME280;62152;52.078;8.414;2023-03-21T10:14:56;100018.84;;;18.40;52.20
56514;BME280;62152;52.078;8.414;2023-03-21T10:19:06;100012.56;;;18.39;51.64
56514;BME280;62152;52.078;8.414;2023-03-21T10:23:14;100014.94;;;18.41;52.33
56514;BME280;62152;52.078;8.414;2023-03-21T10:27:16;100008.28;;;18.42;51.90
56514;BME280;62152;52.078;8.414;2023-03-21T10:31:20;100007.47;;;18.41;51.63
56514;BME280;62152;52.078;8.414;2023-03-21T10:35:26;100002.38;;;18.40;52.01
56514;BME280;62152;52.078;8.414;2023-03-21T10:39:33;99996.50;;;18.41;51.44
56514;BME280;62152;52.078;8.414;2023-03-21T10:43:38;99997.28;;;18.42;51.36
56514;BME280;62152;52.078;8.414;2023-03-21T10:47:40;99991.81;;;18.42;51.99
56514;BME280;62152;52.078;8.414;2023-03-21T10:51:42;99992.22;;;18.44;51.63
56514;BME280;62152;52.078;8.414;2023-03-21T10:55:47;99991.41;;;18.43;51.71
56514;BME280;62152;52.078;8.414;2023-03-21T10:59:55;99989.47;;;18.44;51.90
56514;BME280;62152;52.078;8.414;2023-03-21T11:04:06;99988.28;;;18.45;51.74
56514;BME280;62152;52.078;8.414;2023-03-21T11:08:14;99991.81;;;18.45;51.65
56514;BME280;62152;52.078;8.414;2023-03-21T11:12:28;99993.00;;;18.44;51.96
56514;BME280;62152;52.078;8.414;2023-03-21T11:16:37;99991.81;;;18.42;52.07
56514;BME280;62152;52.078;8.414;2023-03-21T11:20:47;99978.06;;;18.42;51.68
56514;BME280;62152;52.078;8.414;2023-03-21T11:24:58;99978.84;;;18.42;51.65
56514;BME280;62152;52.078;8.414;2023-03-21T11:29:24;99963.56;;;18.45;51.93
56514;BME280;62152;52.078;8.414;2023-03-21T11:33:33;99972.59;;;18.45;51.98
56514;BME280;62152;52.078;8.414;2023-03-21T11:37:38;99971.47;;;18.46;51.51
56514;BME280;62152;52.078;8.414;2023-03-21T11:41:46;99967.13;;;18.45;51.88
56514;BME280;62152;52.078;8.414;2023-03-21T11:45:56;99961.22;;;18.43;52.19
56514;BME280;62152;52.078;8.414;2023-03-21T11:49:58;99956.88;;;18.42;51.54
56514;BME280;62152;52.078;8.414;2023-03-21T11:54:08;99957.28;;;18.41;52.19
56514;BME280;62152;52.078;8.414;2023-03-21T11:58:29;99944.34;;;18.41;52.04
56514;BME280;62152;52.078;8.414;2023-03-21T12:02:52;99939.22;;;18.40;52.02
56514;BME280;62152;52.078;8.414;2023-03-21T12:07:24;99938.44;;;18.39;51.90
56514;BME280;62152;52.078;8.414;2023-03-21T12:11:40;99929.81;;;18.41;51.89
56514;BME280;62152;52.078;8.414;2023-03-21T12:16:08;99920.00;;;18.40;51.82
56514;BME280;62152;52.078;8.414;2023-03-21T12:20:34;99924.31;;;18.41;51.47
56514;BME280;62152;52.078;8.414;2023-03-21T12:24:49;99911.38;;;18.41;51.85
56514;BME280;62152;52.078;8.414;2023-03-21T12:29:19;99918.81;;;18.41;52.22
56514;BME280;62152;52.078;8.414;2023-03-21T12:33:49;99901.19;;;18.42;52.14
56514;BME280;62152;52.078;8.414;2023-03-21T12:38:14;99890.19;;;18.42;51.61
56514;BME280;62152;52.078;8.414;2023-03-21T12:47:00;99886.69;;;18.45;51.94
56514;BME280;62152;52.078;8.414;2023-03-21T12:51:10;99889.44;;;18.45;52.02
56514;BME280;62152;52.078;8.414;2023-03-21T12:55:20;99880.41;;;18.44;51.88
56514;BME280;62152;52.078;8.414;2023-03-21T12:59:31;99892.19;;;18.45;52.19
56514;BME280;62152;52.078;8.414;2023-03-21T13:03:41;99881.19;;;18.45;52.01
56514;BME280;62152;52.078;8.414;2023-03-21T13:07:53;99880.78;;;18.43;51.77
56514;BME280;62152;52.078;8.414;2023-03-21T13:12:12;99890.19;;;18.42;52.08
56514;BME280;62152;52.078;8.414;2023-03-21T13:16:26;99878.44;;;18.41;51.79
56514;BME280;62152;52.078;8.414;2023-03-21T13:20:41;99854.50;;;18.42;51.92
56514;BME280;62152;52.078;8.414;2023-03-21T13:24:49;99861.56;;;18.43;52.15
56514;BME280;62152;52.078;8.414;2023-03-21T13:28:57;99858.06;;;18.46;51.88
56514;BME280;62152;52.078;8.414;2023-03-21T13:33:04;99846.72;;;18.47;52.10
56514;BME280;62152;52.078;8.414;2023-03-21T13:37:14;99851.44;;;18.47;51.56
56514;BME280;62152;52.078;8.414;2023-03-21T13:41:27;99836.09;;;18.46;51.77
56514;BME280;62152;52.078;8.414;2023-03-21T13:45:32;99832.19;;;18.47;51.53
56514;BME280;62152;52.078;8.414;2023-03-21T13:50:19;99823.97;;;18.47;51.92
56514;BME280;62152;52.078;8.414;2023-03-21T13:54:50;99821.22;;;18.47;51.95
56514;BME280;62152;52.078;8.414;2023-03-21T13:58:59;99812.97;;;18.47;52.29
56514;BME280;62152;52.078;8.414;2023-03-21T14:03:07;99806.69;;;18.46;51.42
56514;BME280;62152;52.078;8.414;2023-03-21T14:07:12;99790.22;;;18.46;52.02
56514;BME280;62152;52.078;8.414;2023-03-21T14:11:20;99787.88;;;18.48;52.15
56514;BME280;62152;52.078;8.414;2023-03-21T14:15:25;99788.28;;;18.50;51.78
56514;BME280;62152;52.078;8.414;2023-03-21T14:19:31;99774.94;;;18.49;51.66
56514;BME280;62152;52.078;8.414;2023-03-21T14:23:32;99774.94;;;18.49;52.15
56514;BME280;62152;52.078;8.414;2023-03-21T14:27:35;99774.53;;;18.47;51.57
56514;BME280;62152;52.078;8.414;2023-03-21T14:31:38;99765.88;;;18.45;51.46
56514;BME280;62152;52.078;8.414;2023-03-21T14:35:40;99778.41;;;18.46;52.31
56514;BME280;62152;52.078;8.414;2023-03-21T14:39:42;99772.16;;;18.45;51.50
56514;BME280;62152;52.078;8.414;2023-03-21T14:43:43;99757.63;;;18.45;52.12
56514;BME280;62152;52.078;8.414;2023-03-21T14:47:55;99749.00;;;18.43;51.84
56514;BME280;62152;52.078;8.414;2023-03-21T14:52:00;99757.22;;;18.43;51.64
56514;BME280;62152;52.078;8.414;2023-03-21T14:56:08;99746.25;;;18.43;52.00
56514;BME280;62152;52.078;8.414;2023-03-21T15:00:26;99730.16;;;18.41;51.66
56514;BME280;62152;52.078;8.414;2023-03-21T15:04:31;99711.72;;;18.42;51.84
56514;BME280;62152;52.078;8.414;2023-03-21T15:08:32;99728.97;;;18.42;52.30
56514;BME280;62152;52.078;8.414;2023-03-21T15:12:33;99714.88;;;18.44;51.84
56514;BME280;62152;52.078;8.414;2023-03-21T15:16:35;99720.34;;;18.44;51.83
56514;BME280;62152;52.078;8.414;2023-03-21T15:20:39;99713.28;;;18.43;51.74
56514;BME280;62152;52.078;8.414;2023-03-21T15:24:45;99716.03;;;18.43;52.33
56514;BME280;62152;52.078;8.414;2023-03-21T15:28:55;99707.00;;;18.42;52.22
56514;BME280;62152;52.078;8.414;2023-03-21T15:33:05;99698.00;;;18.42;52.16
56514;BME280;62152;52.078;8.414;2023-03-21T15:37:16;99694.47;;;18.41;51.73
56514;BME280;62152;52.078;8.414;2023-03-21T15:41:27;99699.16;;;18.41;52.31
56514;BME280;62152;52.078;8.414;2023-03-21T15:45:30;99707.41;;;18.41;52.05
56514;BME280;62152;52.078;8.414;2023-03-21T15:49:32;99717.59;;;18.40;52.52
56514;BME280;62152;52.078;8.414;2023-03-21T15:53:42;99708.56;;;18.40;51.84
56514;BME280;62152;52.078;8.414;2023-03-21T15:57:45;99709.34;;;18.40;51.84
56514;BME280;62152;52.078;8.414;2023-03-21T16:01:47;99693.66;;;18.41;51.99
56514;BME280;62152;52.078;8.414;2023-03-21T16:06:04;99695.63;;;18.40;51.86
56514;BME280;62152;52.078;8.414;2023-03-21T16:10:25;99694.84;;;18.40;52.34
56514;BME280;62152;52.078;8.414;2023-03-21T16:14:28;99696.41;;;18.41;52.21
56514;BME280;62152;52.078;8.414;2023-03-21T16:18:29;99701.91;;;18.41;52.31
56514;BME280;62152;52.078;8.414;2023-03-21T16:22:30;99690.94;;;18.41;51.96
56514;BME280;62152;52.078;8.414;2023-03-21T16:26:34;99696.41;;;18.41;52.56
56514;BME280;62152;52.078;8.414;2023-03-21T16:30:36;99702.69;;;18.41;52.23
56514;BME280;62152;52.078;8.414;2023-03-21T16:34:37;99699.16;;;18.41;52.31
56514;BME280;62152;52.078;8.414;2023-03-21T16:38:38;99699.94;;;18.41;52.30
56514;BME280;62152;52.078;8.414;2023-03-21T16:42:40;99701.53;;;18.42;51.92
56514;BME280;62152;52.078;8.414;2023-03-21T16:46:41;99705.44;;;18.41;52.06
56514;BME280;62152;52.078;8.414;2023-03-21T16:50:46;99696.81;;;18.43;52.26
56514;BME280;62152;52.078;8.414;2023-03-21T16:54:47;99688.19;;;18.41;52.35
56514;BME280;62152;52.078;8.414;2023-03-21T16:58:51;99695.63;;;18.40;51.85
56514;BME280;62152;52.078;8.414;2023-03-21T17:02:55;99693.66;;;18.41;52.58
56514;BME280;62152;52.078;8.414;2023-03-21T17:06:58;99699.94;;;18.41;52.44
56514;BME280;62152;52.078;8.414;2023-03-21T17:11:01;99707.41;;;18.41;52.52
56514;BME280;62152;52.078;8.414;2023-03-21T17:15:04;99700.34;;;18.40;52.53
56514;BME280;62152;52.078;8.414;2023-03-21T17:19:11;99693.25;;;18.39;52.49
56514;BME280;62152;52.078;8.414;2023-03-21T17:23:13;99696.38;;;18.37;52.35
56514;BME280;62152;52.078;8.414;2023-03-21T17:27:14;99702.66;;;18.38;52.58
56514;BME280;62152;52.078;8.414;2023-03-21T17:31:18;99686.56;;;18.36;52.03
56514;BME280;62152;52.078;8.414;2023-03-21T17:35:22;99697.53;;;18.36;52.34
56514;BME280;62152;52.078;8.414;2023-03-21T17:39:25;99700.69;;;18.35;52.67
56514;BME280;62152;52.078;8.414;2023-03-21T17:43:26;99701.53;;;18.46;53.35
56514;BME280;62152;52.078;8.414;2023-03-21T17:47:28;99703.56;;;18.52;53.49
56514;BME280;62152;52.078;8.414;2023-03-21T17:51:29;99717.31;;;18.56;53.94
56514;BME280;62152;52.078;8.414;2023-03-21T17:55:30;99720.84;;;18.56;54.17
56514;BME280;62152;52.078;8.414;2023-03-21T17:59:32;99722.41;;;18.54;53.51
56514;BME280;62152;52.078;8.414;2023-03-21T18:03:35;99727.91;;;18.54;54.08
56514;BME280;62152;52.078;8.414;2023-03-21T18:07:36;99728.25;;;18.49;53.75
56514;BME280;62152;52.078;8.414;2023-03-21T18:11:38;99725.91;;;18.47;53.29
56514;BME280;62152;52.078;8.414;2023-03-21T18:15:39;99732.13;;;18.44;53.81
56514;BME280;62152;52.078;8.414;2023-03-21T18:19:42;99725.84;;;18.44;53.88
56514;BME280;62152;52.078;8.414;2023-03-21T18:23:42;99730.56;;;18.43;53.98
56514;BME280;62152;52.078;8.414;2023-03-21T18:27:43;99720.34;;;18.40;53.53
56514;BME280;62152;52.078;8.414;2023-03-21T18:31:45;99714.06;;;18.40;53.61
56514;BME280;62152;52.078;8.414;2023-03-21T18:35:47;99729.38;;;18.41;53.24
56514;BME280;62152;52.078;8.414;2023-03-21T18:39:47;99725.06;;;18.43;53.65
56514;BME280;62152;52.078;8.414;2023-03-21T18:43:48;99731.00;;;18.49;53.72
56514;BME280;62152;52.078;8.414;2023-03-21T18:47:50;99726.34;;;18.53;53.96
56514;BME280;62152;52.078;8.414;2023-03-21T18:51:52;99728.31;;;18.56;53.19
56514;BME280;62152;52.078;8.414;2023-03-21T18:55:53;99732.25;;;18.58;53.65
56514;BME280;62152;52.078;8.414;2023-03-21T18:59:54;99733.81;;;18.59;53.93
56514;BME280;62152;52.078;8.414;2023-03-21T19:03:54;99726.41;;;18.60;53.72
56514;BME280;62152;52.078;8.414;2023-03-21T19:07:57;99727.97;;;18.61;53.86
56514;BME280;62152;52.078;8.414;2023-03-21T19:11:58;99722.09;;;18.63;53.66
56514;BME280;62152;52.078;8.414;2023-03-21T19:15:59;99716.59;;;18.63;53.77
56514;BME280;62152;52.078;8.414;2023-03-21T19:20:01;99720.91;;;18.64;53.51
56514;BME280;62152;52.078;8.414;2023-03-21T19:24:03;99710.00;;;18.67;53.65
56514;BME280;62152;52.078;8.414;2023-03-21T19:28:05;99704.91;;;18.69;53.86
56514;BME280;62152;52.078;8.414;2023-03-21T19:32:06;99707.66;;;18.69;54.02
56514;BME280;62152;52.078;8.414;2023-03-21T19:36:08;99707.25;;;18.71;54.15
56514;BME280;62152;52.078;8.414;2023-03-21T19:40:12;99696.66;;;18.73;54.21
56514;BME280;62152;52.078;8.414;2023-03-21T19:44:13;99697.06;;;18.71;53.69
56514;BME280;62152;52.078;8.414;2023-03-21T19:48:13;99695.09;;;18.72;53.61
56514;BME280;62152;52.078;8.414;2023-03-21T19:52:14;99704.91;;;18.73;54.02
56514;BME280;62152;52.078;8.414;2023-03-21T19:56:16;99710.41;;;18.73;53.80
56514;BME280;62152;52.078;8.414;2023-03-21T20:00:18;99701.00;;;18.74;53.97
56514;BME280;62152;52.078;8.414;2023-03-21T20:04:20;99699.84;;;18.75;54.16
56514;BME280;62152;52.078;8.414;2023-03-21T20:08:21;99696.31;;;18.74;53.86
56514;BME280;62152;52.078;8.414;2023-03-21T20:12:23;99697.44;;;18.73;53.73
56514;BME280;62152;52.078;8.414;2023-03-21T20:16:24;99698.66;;;18.76;53.98
56514;BME280;62152;52.078;8.414;2023-03-21T20:20:25;99701.41;;;18.76;53.93
56514;BME280;62152;52.078;8.414;2023-03-21T20:24:26;99692.78;;;18.77;53.89
56514;BME280;62152;52.078;8.414;2023-03-21T20:28:28;99686.13;;;18.78;54.34
56514;BME280;62152;52.078;8.414;2023-03-21T20:32:29;99679.03;;;18.77;53.77
56514;BME280;62152;52.078;8.414;2023-03-21T20:36:30;99683.72;;;18.73;53.65
56514;BME280;62152;52.078;8.414;2023-03-21T20:40:31;99697.44;;;18.73;53.23
56514;BME280;62152;52.078;8.414;2023-03-21T20:44:33;99705.69;;;18.73;52.51
56514;BME280;62152;52.078;8.414;2023-03-21T20:48:35;99693.53;;;18.71;53.08
56514;BME280;62152;52.078;8.414;2023-03-21T20:52:38;99683.31;;;18.71;52.07
56514;BME280;62152;52.078;8.414;2023-03-21T20:56:39;99698.22;;;18.70;51.86
56514;BME280;62152;52.078;8.414;2023-03-21T21:00:42;99696.25;;;18.67;51.46
56514;BME280;62152;52.078;8.414;2023-03-21T21:04:43;99692.28;;;18.65;51.35
56514;BME280;62152;52.078;8.414;2023-03-21T21:08:44;99686.00;;;18.64;51.76
56514;BME280;62152;52.078;8.414;2023-03-21T21:12:46;99673.44;;;18.63;51.16
56514;BME280;62152;52.078;8.414;2023-03-21T21:16:48;99667.53;;;18.61;51.06
56514;BME280;62152;52.078;8.414;2023-03-21T21:20:52;99660.09;;;18.62;51.15
56514;BME280;62152;52.078;8.414;2023-03-21T21:24:53;99657.72;;;18.60;51.55
56514;BME280;62152;52.078;8.414;2023-03-21T21:28:54;99652.59;;;18.58;50.98
56514;BME280;62152;52.078;8.414;2023-03-21T21:32:56;99654.56;;;18.58;51.77
56514;BME280;62152;52.078;8.414;2023-03-21T21:36:57;99646.31;;;18.58;51.32
56514;BME280;62152;52.078;8.414;2023-03-21T21:40:58;99665.94;;;18.56;51.35
56514;BME280;62152;52.078;8.414;2023-03-21T21:45:00;99647.09;;;18.58;51.58